createdAt,value
2019-03-20T00:00:29.121Z,28.73
2019-03-20T00:02:58.389Z,26.20
2019-03-20T00:05:27.673Z,28.63
2019-03-20T00:07:56.944Z,30.20
2019-03-20T00:10:26.574Z,24.53
2019-03-20T00:12:56.113Z,22.47
2019-03-20T00:15:25.385Z,33.27
2019-03-20T00:17:54.662Z,20.50
2019-03-20T00:20:23.924Z,50.07
2019-03-20T00:22:53.201Z,32.23
2019-03-20T00:25:22.496Z,26.30
2019-03-20T00:27:51.736Z,24.73
2019-03-20T00:30:21.080Z,23.87
2019-03-20T00:32:50.340Z,33.77
2019-03-20T00:35:20.692Z,27.80
2019-03-20T00:37:49.958Z,33.07
2019-03-20T00:40:19.304Z,30.67
2019-03-20T00:42:48.641Z,27.13
2019-03-20T00:45:21.606Z,25.53
2019-03-20T00:47:50.870Z,23.67
2019-03-20T00:50:20.684Z,27.93
2019-03-20T00:52:49.939Z,25.43
2019-03-20T00:55:19.645Z,21.87
2019-03-20T00:57:48.974Z,19.17
2019-03-20T01:00:25.149Z,27.03
2019-03-20T01:02:54.484Z,20.73
2019-03-20T01:05:23.768Z,25.67
2019-03-20T01:07:53.032Z,26.03
2019-03-20T01:10:23.448Z,31.27
2019-03-20T01:12:52.713Z,24.40
2019-03-20T01:15:21.982Z,21.30
2019-03-20T01:17:51.241Z,24.70
2019-03-20T01:20:21.562Z,28.77
2019-03-20T01:22:50.901Z,42.93
2019-03-20T01:25:20.555Z,23.67
2019-03-20T01:27:49.890Z,18.77
2019-03-20T01:30:33.721Z,28.17
2019-03-20T01:33:04.723Z,28.23
2019-03-20T01:35:33.994Z,28.97
2019-03-20T01:38:03.251Z,35.10
2019-03-20T01:40:32.521Z,26.87
2019-03-20T01:43:01.786Z,24.37
2019-03-20T01:45:31.063Z,27.57
2019-03-20T01:48:01.465Z,22.33
2019-03-20T01:50:30.736Z,27.83
2019-03-20T01:53:01.090Z,26.90
2019-03-20T01:55:30.426Z,24.20
2019-03-20T01:57:59.774Z,28.47
2019-03-20T02:00:29.113Z,19.10
2019-03-20T02:02:58.385Z,29.07
2019-03-20T02:05:35.632Z,16.60
2019-03-20T02:07:59.593Z,25.80
2019-03-20T02:10:29.909Z,28.50
2019-03-20T02:12:59.245Z,26.80
2019-03-20T02:15:37.952Z,28.17
2019-03-20T02:17:59.503Z,27.20
2019-03-20T02:20:28.777Z,31.73
2019-03-20T02:22:58.050Z,23.03
2019-03-20T02:25:27.312Z,29.13
2019-03-20T02:27:56.596Z,29.13
2019-03-20T02:30:25.867Z,24.47
2019-03-20T02:32:55.138Z,32.17
2019-03-20T02:35:24.403Z,20.37
2019-03-20T02:37:53.695Z,19.00
2019-03-20T02:40:22.954Z,28.20
2019-03-20T02:42:52.230Z,22.27
2019-03-20T02:45:21.492Z,25.30
2019-03-20T02:47:50.765Z,24.90
2019-03-20T02:50:20.034Z,22.33
2019-03-20T02:52:49.309Z,30.70
2019-03-20T02:55:18.576Z,19.30
2019-03-20T02:57:47.858Z,23.20
2019-03-20T03:00:20.766Z,28.03
2019-03-20T03:02:50.033Z,20.77
2019-03-20T03:05:19.465Z,24.13
2019-03-20T03:07:48.737Z,21.57
2019-03-20T03:10:18.658Z,20.43
2019-03-20T03:12:47.934Z,21.10
2019-03-20T03:15:17.194Z,21.00
2019-03-20T03:17:46.464Z,22.63
2019-03-20T03:20:26.349Z,20.90
2019-03-20T03:22:55.618Z,30.03
2019-03-20T03:25:24.881Z,21.17
2019-03-20T03:27:54.158Z,18.50
2019-03-20T03:30:23.447Z,22.90
2019-03-20T03:32:52.775Z,17.90
2019-03-20T03:35:22.065Z,23.13
2019-03-20T03:37:51.324Z,26.83
2019-03-20T03:40:20.863Z,19.53
2019-03-20T03:42:50.159Z,24.17
2019-03-20T03:45:19.492Z,22.73
2019-03-20T03:47:48.771Z,26.00
2019-03-20T03:50:18.042Z,26.67
2019-03-20T03:52:47.318Z,35.47
2019-03-20T03:55:16.595Z,21.23
2019-03-20T03:57:45.919Z,24.27
2019-03-20T04:00:17.299Z,28.17
2019-03-20T04:02:46.573Z,20.90
2019-03-20T04:05:15.970Z,23.43
2019-03-20T04:07:45.261Z,29.70
2019-03-20T04:10:15.786Z,19.17
2019-03-20T04:12:45.058Z,21.17
2019-03-20T04:15:16.336Z,25.07
2019-03-20T04:17:45.630Z,20.30
2019-03-20T04:20:17.215Z,24.03
2019-03-20T04:22:46.492Z,24.17
2019-03-20T04:25:15.822Z,31.37
2019-03-20T04:27:45.095Z,25.00
2019-03-20T04:30:15.879Z,23.87
2019-03-20T04:32:45.185Z,22.97
2019-03-20T04:35:14.982Z,22.90
2019-03-20T04:37:44.253Z,20.17
2019-03-20T04:40:18.353Z,20.10
2019-03-20T04:42:47.662Z,24.40
2019-03-20T04:45:17.329Z,31.70
2019-03-20T04:47:46.589Z,19.33
2019-03-20T04:50:17.439Z,25.30
2019-03-20T04:52:46.697Z,30.03
2019-03-20T04:55:15.974Z,23.77
2019-03-20T04:57:46.000Z,26.17
2019-03-20T05:00:17.047Z,31.07
2019-03-20T05:02:46.308Z,24.23
2019-03-20T05:05:15.582Z,31.20
2019-03-20T05:07:44.851Z,23.67
2019-03-20T05:10:16.266Z,29.37
2019-03-20T05:12:45.521Z,21.13
2019-03-20T05:15:14.939Z,31.37
2019-03-20T05:17:44.273Z,23.43
2019-03-20T05:20:15.103Z,30.07
2019-03-20T05:22:44.365Z,24.73
2019-03-20T05:25:13.700Z,21.30
2019-03-20T05:27:42.980Z,19.47
2019-03-20T05:30:13.789Z,29.33
2019-03-20T05:32:43.065Z,25.17
2019-03-20T05:35:12.596Z,25.73
2019-03-20T05:37:41.977Z,27.53
2019-03-20T05:40:18.801Z,28.57
2019-03-20T05:42:48.064Z,36.83
2019-03-20T05:45:18.171Z,23.47
2019-03-20T05:47:47.468Z,26.73
2019-03-20T05:50:17.522Z,28.03
2019-03-20T05:52:46.804Z,29.53
2019-03-20T05:55:16.144Z,29.27
2019-03-20T05:57:45.431Z,25.57
2019-03-20T06:00:21.580Z,28.83
2019-03-20T06:02:50.845Z,34.47
2019-03-20T06:05:20.167Z,27.77
2019-03-20T06:07:49.433Z,29.93
2019-03-20T06:10:18.994Z,26.10
2019-03-20T06:12:49.319Z,24.53
2019-03-20T06:15:18.591Z,28.07
2019-03-20T06:17:47.848Z,28.83
2019-03-20T06:20:17.143Z,25.73
2019-03-20T06:22:46.475Z,36.10
2019-03-20T06:25:16.345Z,25.53
2019-03-20T06:27:45.672Z,27.87
2019-03-20T06:30:18.869Z,36.10
2019-03-20T06:32:48.143Z,31.57
2019-03-20T06:35:17.408Z,25.30
2019-03-20T06:37:46.685Z,27.13
2019-03-20T06:40:17.098Z,26.90
2019-03-20T06:42:46.380Z,28.43
2019-03-20T06:45:22.812Z,24.57
2019-03-20T06:47:52.083Z,25.10
2019-03-20T06:50:22.481Z,23.93
2019-03-20T06:52:51.775Z,29.30
2019-03-20T06:55:21.038Z,24.70
2019-03-20T06:57:50.413Z,23.90
2019-03-20T07:00:39.414Z,26.43
2019-03-20T07:03:25.331Z,22.17
2019-03-20T07:06:23.461Z,21.03
2019-03-20T07:09:10.761Z,28.97
2019-03-20T07:11:40.029Z,18.40
2019-03-20T07:14:09.301Z,21.43
2019-03-20T07:16:39.653Z,24.43
2019-03-20T07:19:08.919Z,23.27
2019-03-20T07:21:38.199Z,19.20
2019-03-20T07:24:07.475Z,20.07
2019-03-20T07:26:36.741Z,26.23
2019-03-20T07:29:06.041Z,21.90
2019-03-20T07:31:35.294Z,23.47
2019-03-20T07:34:04.626Z,24.80
2019-03-20T07:36:33.904Z,22.83
2019-03-20T07:39:04.691Z,29.03
2019-03-20T07:41:33.961Z,25.47
2019-03-20T07:44:03.232Z,23.63
2019-03-20T07:46:32.496Z,21.33
2019-03-20T07:49:01.776Z,20.30
2019-03-20T07:51:31.035Z,21.27
2019-03-20T07:54:00.308Z,19.73
2019-03-20T07:56:29.570Z,23.10
2019-03-20T07:58:58.844Z,22.47
2019-03-20T08:01:28.112Z,23.80
2019-03-20T08:03:57.390Z,22.63
2019-03-20T08:06:26.653Z,24.87
2019-03-20T08:08:55.925Z,14.83
2019-03-20T08:11:25.193Z,26.53
2019-03-20T08:13:54.479Z,25.60
2019-03-20T08:16:23.747Z,27.73
2019-03-20T08:18:53.021Z,26.47
2019-03-20T08:21:22.285Z,22.07
2019-03-20T08:23:51.577Z,23.57
2019-03-20T08:26:20.911Z,21.10
2019-03-20T08:28:50.180Z,22.53
2019-03-20T08:31:19.522Z,30.30
2019-03-20T08:33:48.795Z,22.70
2019-03-20T08:36:18.052Z,22.93
2019-03-20T08:38:47.340Z,32.87
2019-03-20T08:41:16.608Z,20.30
2019-03-20T08:43:45.869Z,23.03
2019-03-20T08:46:15.136Z,28.30
2019-03-20T08:48:44.408Z,18.40
2019-03-20T08:51:13.681Z,21.00
2019-03-20T08:53:42.953Z,22.67
2019-03-20T08:56:12.215Z,21.57
2019-03-20T08:58:41.556Z,22.73
2019-03-20T09:01:10.833Z,18.90
2019-03-20T09:03:40.105Z,19.53
2019-03-20T09:06:09.372Z,21.70
2019-03-20T09:08:38.654Z,24.23
2019-03-20T09:11:07.939Z,19.80
2019-03-20T09:13:37.217Z,21.67
2019-03-20T09:16:06.490Z,22.63
2019-03-20T09:18:35.748Z,23.17
2019-03-20T09:21:05.015Z,16.90
2019-03-20T09:23:34.288Z,18.70
2019-03-20T09:26:03.552Z,20.57
2019-03-20T09:28:32.825Z,14.67
2019-03-20T09:31:02.109Z,13.43
2019-03-20T09:33:31.435Z,14.20
2019-03-20T09:36:00.704Z,24.47
2019-03-20T09:38:29.973Z,19.30
2019-03-20T09:40:59.245Z,19.60
2019-03-20T09:43:28.566Z,17.07
2019-03-20T09:45:57.861Z,17.87
2019-03-20T09:48:27.115Z,16.63
2019-03-20T09:50:56.384Z,24.67
2019-03-20T09:53:25.653Z,20.90
2019-03-20T09:55:54.923Z,15.73
2019-03-20T09:58:24.197Z,20.57
2019-03-20T10:00:53.463Z,20.50
2019-03-20T10:03:22.734Z,19.43
2019-03-20T10:05:52.013Z,23.33
2019-03-20T10:08:21.272Z,21.70
2019-03-20T10:10:50.554Z,26.90
2019-03-20T10:13:19.821Z,23.03
2019-03-20T10:15:49.093Z,24.67
2019-03-20T10:18:18.362Z,34.43
2019-03-20T10:20:47.636Z,34.83
2019-03-20T10:23:16.913Z,30.17
2019-03-20T10:25:47.273Z,50.53
2019-03-20T10:28:16.557Z,66.13
2019-03-20T10:30:45.853Z,67.10
2019-03-20T10:33:16.627Z,31.80
2019-03-20T10:35:50.250Z,26.00
2019-03-20T10:38:17.049Z,27.10
2019-03-20T10:40:46.323Z,30.60
2019-03-20T10:43:15.615Z,29.87
2019-03-20T10:45:44.875Z,17.77
2019-03-20T10:48:14.154Z,20.50
2019-03-20T10:50:44.488Z,19.27
2019-03-20T10:53:13.782Z,19.20
2019-03-20T10:55:43.066Z,23.70
2019-03-20T10:58:12.355Z,19.10
2019-03-20T11:00:41.614Z,24.20
2019-03-20T11:03:10.903Z,31.00
2019-03-20T11:05:40.170Z,23.63
2019-03-20T11:08:09.428Z,23.40
2019-03-20T11:10:38.696Z,16.07
2019-03-20T11:13:07.978Z,17.47
2019-03-20T11:15:37.250Z,19.47
2019-03-20T11:18:06.524Z,22.13
2019-03-20T11:20:35.788Z,16.73
2019-03-20T11:23:05.348Z,17.70
2019-03-20T11:25:34.609Z,13.20
2019-03-20T11:28:03.961Z,11.97
2019-03-20T11:30:33.888Z,21.20
2019-03-20T11:33:03.159Z,21.33
2019-03-20T11:35:32.433Z,17.63
2019-03-20T11:38:01.729Z,16.87
2019-03-20T11:40:33.201Z,20.33
2019-03-20T11:43:02.561Z,16.67
2019-03-20T11:45:31.828Z,20.00
2019-03-20T11:48:01.104Z,12.77
2019-03-20T11:50:35.901Z,16.83
2019-03-20T11:53:08.928Z,15.43
2019-03-20T11:55:38.534Z,13.87
2019-03-20T11:58:08.156Z,15.93
2019-03-20T12:00:37.424Z,15.83
2019-03-20T12:03:06.702Z,17.90
2019-03-20T12:05:35.984Z,15.10
2019-03-20T12:08:06.880Z,18.37
2019-03-20T12:10:36.153Z,16.10
2019-03-20T12:13:05.503Z,25.20
2019-03-20T12:15:34.772Z,15.80
2019-03-20T12:18:04.048Z,15.07
2019-03-20T12:20:33.325Z,16.60
2019-03-20T12:23:02.603Z,16.03
2019-03-20T12:25:36.956Z,11.40
2019-03-20T12:28:06.233Z,20.43
2019-03-20T12:30:36.649Z,13.83
2019-03-20T12:33:06.278Z,16.70
2019-03-20T12:35:37.290Z,15.90
2019-03-20T12:38:14.197Z,16.63
2019-03-20T12:40:38.056Z,15.50
2019-03-20T12:43:07.409Z,22.63
2019-03-20T12:45:38.700Z,22.23
2019-03-20T12:48:12.928Z,13.43
2019-03-20T12:50:42.195Z,19.57
2019-03-20T12:53:14.536Z,8.73
2019-03-20T12:55:44.044Z,23.50
2019-03-20T12:58:13.320Z,12.07
2019-03-20T13:00:42.595Z,15.53
2019-03-20T13:05:41.172Z,16.13
2019-03-20T13:08:10.432Z,10.23
2019-03-20T13:10:39.730Z,12.80
2019-03-20T13:13:09.058Z,9.63
2019-03-20T13:15:38.349Z,14.30
2019-03-20T13:18:07.622Z,13.87
2019-03-20T13:20:36.903Z,9.83
2019-03-20T13:23:15.448Z,6.90
2019-03-20T13:25:44.732Z,13.57
2019-03-20T13:28:14.012Z,13.40
2019-03-20T13:30:49.102Z,9.07
2019-03-20T13:33:25.699Z,8.87
2019-03-20T13:35:49.452Z,11.13
2019-03-20T13:38:18.711Z,18.03
2019-03-20T13:40:50.073Z,9.63
2019-03-20T13:43:19.342Z,8.67
2019-03-20T13:45:48.629Z,13.33
2019-03-20T13:48:17.902Z,11.20
2019-03-20T13:50:47.175Z,10.87
2019-03-20T13:53:16.530Z,10.73
2019-03-20T13:55:45.792Z,10.63
2019-03-20T13:58:15.071Z,13.07
2019-03-20T14:00:44.349Z,9.17
2019-03-20T14:03:13.668Z,10.73
2019-03-20T14:05:42.978Z,7.13
2019-03-20T14:08:13.207Z,8.90
2019-03-20T14:10:50.499Z,10.37
2019-03-20T14:13:13.465Z,12.33
2019-03-20T14:15:42.736Z,9.67
2019-03-20T14:18:12.000Z,9.90
2019-03-20T14:20:41.281Z,8.47
2019-03-20T14:23:10.560Z,13.10
2019-03-20T14:25:39.841Z,13.97
2019-03-20T14:28:09.112Z,8.67
2019-03-20T14:30:38.393Z,6.97
2019-03-20T14:33:07.660Z,6.17
2019-03-20T14:35:36.937Z,8.17
2019-03-20T14:38:06.204Z,7.40
2019-03-20T14:40:36.851Z,10.10
2019-03-20T14:43:06.397Z,6.20
2019-03-20T14:45:35.825Z,14.97
2019-03-20T14:48:05.168Z,7.90
2019-03-20T14:50:36.357Z,9.73
2019-03-20T14:53:05.412Z,11.23
2019-03-20T14:55:34.676Z,13.53
2019-03-20T14:58:04.017Z,8.63
2019-03-20T15:00:33.296Z,10.63
2019-03-20T15:03:02.570Z,8.90
2019-03-20T15:05:31.831Z,7.33
2019-03-20T15:08:01.110Z,7.57
2019-03-20T15:10:30.371Z,8.90
2019-03-20T15:12:59.704Z,14.50
2019-03-20T15:15:50.182Z,17.23
2019-03-20T15:18:19.470Z,5.93
2019-03-20T15:20:48.723Z,5.83
2019-03-20T15:23:17.999Z,6.77
2019-03-20T15:25:47.275Z,5.37
2019-03-20T15:28:16.555Z,6.50
2019-03-20T15:30:45.822Z,7.00
2019-03-20T15:33:15.134Z,9.17
2019-03-20T15:35:44.397Z,6.17
2019-03-20T15:38:13.671Z,5.00
2019-03-20T15:40:42.947Z,7.20
2019-03-20T15:43:12.215Z,12.93
2019-03-20T15:45:41.533Z,8.43
2019-03-20T15:48:10.847Z,9.03
2019-03-20T15:50:40.117Z,5.57
2019-03-20T15:53:09.400Z,13.03
2019-03-20T15:55:40.618Z,11.90
2019-03-20T15:58:09.892Z,12.03
2019-03-20T16:00:39.168Z,7.43
2019-03-20T16:03:16.723Z,7.97
2019-03-20T16:05:45.998Z,8.87
2019-03-20T16:08:15.269Z,4.50
2019-03-20T16:10:44.539Z,4.00
2019-03-20T16:13:13.885Z,4.43
2019-03-20T16:15:43.151Z,6.00
2019-03-20T16:18:12.433Z,5.50
2019-03-20T16:20:41.936Z,6.43
2019-03-20T16:23:11.213Z,5.03
2019-03-20T16:25:40.483Z,5.27
2019-03-20T16:28:09.764Z,3.70
2019-03-20T16:30:39.042Z,7.50
2019-03-20T16:33:08.322Z,5.30
2019-03-20T16:35:37.584Z,4.00
2019-03-20T16:38:07.125Z,8.83
2019-03-20T16:40:36.893Z,4.10
2019-03-20T16:43:06.235Z,8.43
2019-03-20T16:45:37.207Z,7.10
2019-03-20T16:48:06.828Z,10.03
2019-03-20T16:50:36.100Z,6.33
2019-03-20T16:53:05.393Z,7.00
2019-03-20T16:55:34.652Z,4.10
2019-03-20T16:58:03.957Z,8.00
2019-03-20T17:00:33.858Z,4.73
2019-03-20T17:03:03.130Z,6.87
2019-03-20T17:05:32.415Z,4.27
2019-03-20T17:08:02.535Z,8.13
2019-03-20T17:10:39.705Z,8.97
2019-03-20T17:13:08.974Z,8.57
2019-03-20T17:15:39.280Z,4.87
2019-03-20T17:18:08.683Z,5.23
2019-03-20T17:20:37.966Z,9.33
2019-03-20T17:23:08.096Z,7.07
2019-03-20T17:25:37.427Z,11.13
2019-03-20T17:28:07.351Z,7.40
2019-03-20T17:30:44.060Z,4.60
2019-03-20T17:33:13.329Z,7.07
2019-03-20T17:35:42.614Z,7.23
2019-03-20T17:38:11.884Z,8.77
2019-03-20T17:40:41.166Z,7.43
2019-03-20T17:43:10.441Z,8.97
2019-03-20T17:45:39.977Z,8.17
2019-03-20T17:48:09.259Z,17.13
2019-03-20T17:50:38.534Z,9.30
2019-03-20T17:53:07.807Z,6.43
2019-03-20T17:55:37.096Z,7.90
2019-03-20T17:58:06.442Z,9.17
2019-03-20T18:00:37.368Z,10.13
2019-03-20T18:03:08.066Z,15.20
2019-03-20T18:05:37.332Z,8.83
2019-03-20T18:08:07.634Z,9.33
2019-03-20T18:10:36.936Z,12.83
2019-03-20T18:13:07.171Z,9.83
2019-03-20T18:15:37.201Z,15.80
2019-03-20T18:18:07.828Z,10.07
2019-03-20T18:20:37.746Z,19.37
2019-03-20T18:23:07.764Z,13.17
2019-03-20T18:25:37.044Z,12.50
2019-03-20T18:28:06.586Z,11.57
2019-03-20T18:30:40.868Z,17.23
2019-03-20T18:33:10.156Z,36.73
2019-03-20T18:35:39.449Z,13.93
2019-03-20T18:38:08.720Z,15.83
2019-03-20T18:40:38.020Z,17.80
2019-03-20T18:43:07.300Z,20.03
2019-03-20T18:45:36.588Z,15.53
2019-03-20T18:48:05.940Z,23.13
2019-03-20T18:50:35.302Z,19.27
2019-03-20T18:53:05.624Z,16.93
2019-03-20T18:55:34.928Z,17.57
2019-03-20T18:58:04.333Z,15.33
2019-03-20T19:00:34.756Z,14.10
2019-03-20T19:03:19.625Z,18.63
2019-03-20T19:06:03.868Z,14.47
2019-03-20T19:08:33.210Z,17.93
2019-03-20T19:11:02.567Z,20.07
2019-03-20T19:13:31.912Z,23.63
2019-03-20T19:16:01.275Z,18.30
2019-03-20T19:18:30.556Z,15.47
2019-03-20T19:20:59.835Z,12.47
2019-03-20T19:23:30.081Z,16.07
2019-03-20T19:25:59.367Z,13.97
2019-03-20T19:28:28.653Z,18.87
2019-03-20T19:30:58.001Z,13.67
2019-03-20T19:33:27.366Z,17.30
2019-03-20T19:35:56.680Z,14.67
2019-03-20T19:38:34.461Z,23.60
2019-03-20T19:40:56.940Z,21.40
2019-03-20T19:43:26.213Z,19.93
2019-03-20T19:45:55.504Z,14.70
2019-03-20T19:48:24.810Z,17.60
2019-03-20T19:50:56.979Z,22.13
2019-03-20T19:53:26.273Z,21.53
2019-03-20T19:55:55.559Z,21.63
2019-03-20T19:58:24.860Z,19.70
2019-03-20T20:00:54.151Z,21.07
2019-03-20T20:03:23.444Z,23.97
2019-03-20T20:05:52.727Z,21.90
2019-03-20T20:08:22.963Z,24.60
2019-03-20T20:10:52.245Z,21.47
2019-03-20T20:13:21.533Z,19.50
2019-03-20T20:15:50.819Z,21.57
2019-03-20T20:18:20.123Z,14.37
2019-03-20T20:20:49.393Z,20.87
2019-03-20T20:23:18.734Z,21.37
2019-03-20T20:25:48.025Z,18.23
2019-03-20T20:28:17.309Z,18.50
2019-03-20T20:30:46.597Z,19.23
2019-03-20T20:33:15.873Z,23.87
2019-03-20T20:35:45.150Z,15.90
2019-03-20T20:38:14.427Z,17.60
2019-03-20T20:40:43.692Z,20.03
2019-03-20T20:43:12.965Z,17.13
2019-03-20T20:45:42.234Z,17.73
2019-03-20T20:48:11.529Z,16.97
2019-03-20T20:50:40.793Z,16.07
2019-03-20T20:53:11.692Z,16.50
2019-03-20T20:55:40.959Z,15.60
2019-03-20T20:58:10.250Z,17.43
2019-03-20T21:00:39.657Z,14.10
2019-03-20T21:03:08.934Z,16.50
2019-03-20T21:05:38.200Z,15.83
2019-03-20T21:08:07.498Z,16.93
2019-03-20T21:10:36.767Z,17.73
2019-03-20T21:13:06.049Z,17.53
2019-03-20T21:15:39.817Z,21.93
2019-03-20T21:18:15.218Z,14.97
2019-03-20T21:20:44.828Z,16.10
2019-03-20T21:23:39.989Z,12.63
2019-03-20T21:26:23.951Z,13.37
2019-03-20T21:29:29.641Z,14.57
2019-03-20T21:32:04.685Z,16.60
2019-03-20T21:35:10.144Z,16.37
2019-03-20T21:38:03.363Z,18.13
2019-03-20T21:40:47.696Z,16.30
2019-03-20T21:43:43.609Z,17.77
2019-03-20T21:46:35.013Z,15.13
2019-03-20T21:49:04.287Z,22.70
2019-03-20T21:51:33.649Z,20.87
2019-03-20T21:54:15.289Z,21.90
2019-03-20T21:57:09.448Z,14.83
2019-03-20T22:00:15.142Z,22.67
2019-03-20T22:02:45.951Z,21.77
2019-03-20T22:05:33.229Z,16.73
2019-03-20T22:08:04.239Z,17.43
2019-03-20T22:10:42.110Z,18.13
2019-03-20T22:13:19.026Z,16.53
2019-03-20T22:15:54.554Z,13.07
2019-03-20T22:18:32.661Z,16.67
2019-03-20T22:21:10.702Z,12.93
2019-03-20T22:23:51.566Z,22.83
2019-03-20T22:26:32.861Z,23.80
2019-03-20T22:29:14.117Z,15.87
2019-03-20T22:31:46.473Z,36.80
2019-03-20T22:34:36.341Z,19.57
2019-03-20T22:37:06.465Z,15.90
2019-03-20T22:40:03.001Z,20.33
2019-03-20T22:42:47.091Z,15.40
2019-03-20T22:45:46.844Z,16.93
2019-03-20T22:48:43.240Z,17.00
2019-03-20T22:51:42.908Z,18.13
2019-03-20T22:54:30.164Z,19.13
2019-03-20T22:57:26.860Z,14.03
2019-03-20T22:59:56.133Z,14.30
2019-03-20T23:02:28.477Z,16.20
2019-03-20T23:04:59.592Z,13.17
2019-03-20T23:07:29.911Z,19.60
2019-03-20T23:09:59.178Z,13.27
2019-03-20T23:12:28.448Z,23.53
2019-03-20T23:14:57.722Z,15.90
2019-03-20T23:17:26.997Z,17.93
2019-03-20T23:19:56.270Z,18.73
2019-03-20T23:22:26.520Z,16.93
2019-03-20T23:24:55.787Z,17.90
2019-03-20T23:27:26.407Z,20.37
2019-03-20T23:29:55.671Z,18.27
2019-03-20T23:32:25.038Z,18.10
2019-03-20T23:34:54.309Z,18.13
2019-03-20T23:37:23.568Z,18.60
2019-03-20T23:39:52.855Z,16.10
2019-03-20T23:42:22.122Z,16.60
2019-03-20T23:44:51.396Z,19.93
2019-03-20T23:47:24.816Z,16.20
2019-03-20T23:49:54.097Z,23.77
2019-03-20T23:52:23.368Z,20.70
2019-03-20T23:54:52.716Z,21.90
2019-03-20T23:57:21.983Z,16.17
2019-03-20T23:59:55.204Z,16.23
